createdAt,value
2019-02-28T00:02:21.140Z,34.00
2019-02-28T00:04:47.563Z,32.07
2019-02-28T00:07:17.970Z,31.47
2019-02-28T00:09:48.461Z,32.10
2019-02-28T00:12:18.076Z,31.97
2019-02-28T00:14:47.876Z,33.60
2019-02-28T00:17:17.786Z,31.07
2019-02-28T00:19:47.462Z,32.80
2019-02-28T00:22:17.594Z,31.13
2019-02-28T00:24:49.500Z,31.83
2019-02-28T00:27:21.965Z,32.13
2019-02-28T00:29:51.621Z,30.73
2019-02-28T00:32:24.552Z,29.90
2019-02-28T00:34:52.567Z,31.73
2019-02-28T00:37:24.696Z,30.80
2019-02-28T00:39:53.711Z,31.30
2019-02-28T00:42:24.308Z,31.80
2019-02-28T00:44:54.765Z,32.23
2019-02-28T00:47:24.378Z,30.40
2019-02-28T00:49:56.493Z,29.93
2019-02-28T00:52:26.323Z,31.93
2019-02-28T00:54:55.942Z,32.63
2019-02-28T00:57:26.504Z,31.77
2019-02-28T00:59:56.185Z,30.93
2019-02-28T01:02:26.082Z,31.80
2019-02-28T01:04:55.712Z,30.83
2019-02-28T01:07:25.633Z,32.30
2019-02-28T01:09:55.255Z,30.93
2019-02-28T01:12:25.347Z,31.17
2019-02-28T01:14:55.848Z,31.83
2019-02-28T01:17:26.705Z,30.57
2019-02-28T01:19:57.167Z,30.40
2019-02-28T01:22:27.999Z,29.63
2019-02-28T01:24:57.806Z,30.27
2019-02-28T01:27:27.445Z,36.10
2019-02-28T01:29:58.088Z,29.03
2019-02-28T01:32:29.582Z,31.80
2019-02-28T01:34:59.370Z,29.50
2019-02-28T01:37:29.061Z,30.77
2019-02-28T01:40:01.122Z,32.00
2019-02-28T01:42:30.004Z,31.33
2019-02-28T01:44:59.659Z,31.63
2019-02-28T01:47:29.395Z,33.23
2019-02-28T01:49:59.018Z,31.47
2019-02-28T01:52:30.466Z,29.77
2019-02-28T01:55:00.455Z,33.63
2019-02-28T01:57:30.089Z,33.43
2019-02-28T01:59:59.754Z,31.10
2019-02-28T02:02:29.550Z,38.00
2019-02-28T02:04:59.180Z,35.53
2019-02-28T02:07:30.564Z,35.30
2019-02-28T02:10:00.702Z,33.17
2019-02-28T02:12:31.705Z,34.43
2019-02-28T02:15:02.854Z,36.63
2019-02-28T02:17:35.479Z,41.53
2019-02-28T02:20:05.341Z,35.77
2019-02-28T02:22:35.972Z,36.00
2019-02-28T02:25:07.602Z,36.20
2019-02-28T02:27:38.212Z,36.87
2019-02-28T02:30:15.756Z,37.73
2019-02-28T02:32:46.823Z,40.43
2019-02-28T02:35:17.144Z,40.83
2019-02-28T02:37:46.817Z,38.30
2019-02-28T02:40:17.285Z,36.43
2019-02-28T02:42:48.617Z,34.27
2019-02-28T02:45:19.893Z,37.27
2019-02-28T02:47:50.485Z,39.73
2019-02-28T02:50:21.084Z,40.53
2019-02-28T02:52:51.018Z,39.33
2019-02-28T02:55:27.937Z,42.80
2019-02-28T02:57:52.849Z,40.13
2019-02-28T03:00:24.185Z,44.10
2019-02-28T03:02:54.484Z,42.40
2019-02-28T03:05:24.111Z,44.17
2019-02-28T03:07:59.433Z,43.87
2019-02-28T03:10:25.165Z,43.90
2019-02-28T03:12:54.961Z,40.07
2019-02-28T03:15:26.987Z,41.60
2019-02-28T03:17:57.441Z,45.87
2019-02-28T03:20:28.341Z,43.87
2019-02-28T03:23:02.247Z,43.63
2019-02-28T03:25:31.001Z,44.20
2019-02-28T03:28:00.638Z,44.10
2019-02-28T03:30:32.787Z,43.53
2019-02-28T03:33:02.417Z,46.80
2019-02-28T03:35:40.017Z,50.50
2019-02-28T03:38:10.437Z,45.80
2019-02-28T03:40:39.867Z,48.37
2019-02-28T03:43:07.176Z,47.93
2019-02-28T03:45:36.907Z,47.30
2019-02-28T03:48:06.611Z,49.23
2019-02-28T03:50:36.321Z,48.23
2019-02-28T03:53:06.137Z,50.40
2019-02-28T03:55:40.883Z,50.63
2019-02-28T03:58:08.732Z,45.87
2019-02-28T04:00:39.369Z,47.23
2019-02-28T04:03:09.844Z,47.00
2019-02-28T04:05:41.082Z,50.30
2019-02-28T04:08:10.924Z,49.23
2019-02-28T04:10:40.560Z,48.60
2019-02-28T04:13:10.458Z,48.60
2019-02-28T04:15:50.772Z,47.10
2019-02-28T04:18:12.836Z,47.70
2019-02-28T04:20:42.414Z,49.67
2019-02-28T04:23:12.236Z,50.03
2019-02-28T04:25:41.834Z,51.17
2019-02-28T04:28:16.833Z,52.77
2019-02-28T04:30:44.012Z,53.10
2019-02-28T04:33:13.905Z,52.30
2019-02-28T04:35:43.530Z,52.07
2019-02-28T04:38:13.859Z,52.77
2019-02-28T04:40:44.252Z,56.27
2019-02-28T04:43:13.872Z,53.33
2019-02-28T04:45:44.188Z,52.77
2019-02-28T04:48:14.741Z,55.63
2019-02-28T04:50:44.384Z,53.23
2019-02-28T04:53:14.914Z,51.43
2019-02-28T04:55:44.533Z,53.63
2019-02-28T04:58:14.164Z,51.07
2019-02-28T05:00:43.946Z,58.47
2019-02-28T05:03:13.732Z,52.30
2019-02-28T05:05:46.901Z,55.60
2019-02-28T05:08:15.785Z,58.77
2019-02-28T05:10:45.236Z,52.87
2019-02-28T05:13:15.008Z,54.37
2019-02-28T05:15:44.712Z,58.20
2019-02-28T05:18:15.073Z,53.37
2019-02-28T05:20:47.029Z,57.87
2019-02-28T05:23:16.687Z,59.67
2019-02-28T05:25:49.061Z,53.67
2019-02-28T05:28:17.924Z,48.03
2019-02-28T05:30:50.246Z,56.67
2019-02-28T05:33:19.293Z,59.97
2019-02-28T05:35:49.474Z,61.90
2019-02-28T05:38:21.209Z,61.00
2019-02-28T05:40:51.583Z,63.87
2019-02-28T05:43:21.324Z,73.70
2019-02-28T05:45:51.366Z,78.17
2019-02-28T05:48:21.790Z,65.27
2019-02-28T05:50:53.303Z,62.10
2019-02-28T05:53:22.792Z,66.93
2019-02-28T05:55:59.020Z,70.40
2019-02-28T05:58:25.313Z,68.00
2019-02-28T06:00:55.008Z,95.10
2019-02-28T06:03:25.167Z,74.77
2019-02-28T06:05:54.787Z,75.33
2019-02-28T06:08:24.451Z,73.83
2019-02-28T06:10:56.026Z,77.97
2019-02-28T06:13:25.921Z,64.90
2019-02-28T06:15:55.621Z,66.40
2019-02-28T06:18:27.066Z,61.20
2019-02-28T06:20:56.718Z,61.43
2019-02-28T06:23:26.443Z,67.07
2019-02-28T06:25:59.388Z,68.83
2019-02-28T06:28:31.138Z,75.23
2019-02-28T06:31:00.205Z,75.97
2019-02-28T06:33:30.529Z,73.27
2019-02-28T06:36:01.925Z,71.87
2019-02-28T06:38:31.709Z,67.67
2019-02-28T06:41:04.254Z,69.33
2019-02-28T06:43:33.415Z,67.27
2019-02-28T06:46:03.758Z,68.60
2019-02-28T06:48:33.391Z,91.27
2019-02-28T06:51:03.580Z,70.07
2019-02-28T06:53:36.289Z,66.77
2019-02-28T06:56:05.918Z,64.13
2019-02-28T06:58:35.616Z,67.83
2019-02-28T07:01:05.372Z,67.57
2019-02-28T07:03:38.566Z,67.33
2019-02-28T07:06:06.486Z,69.00
2019-02-28T07:08:36.628Z,70.03
2019-02-28T07:11:07.427Z,70.60
2019-02-28T07:13:39.944Z,67.33
2019-02-28T07:16:09.486Z,68.13
2019-02-28T07:18:39.116Z,68.73
2019-02-28T07:21:08.774Z,65.87
2019-02-28T07:23:38.399Z,66.73
2019-02-28T07:26:08.024Z,71.93
2019-02-28T07:28:38.135Z,64.30
2019-02-28T07:31:07.794Z,58.93
2019-02-28T07:33:37.421Z,61.00
2019-02-28T07:36:09.300Z,62.10
2019-02-28T07:38:38.805Z,61.53
2019-02-28T07:41:09.508Z,60.70
2019-02-28T07:43:39.495Z,56.97
2019-02-28T07:46:09.168Z,60.03
2019-02-28T07:48:38.792Z,59.80
2019-02-28T07:51:08.418Z,57.43
2019-02-28T07:53:40.916Z,60.00
2019-02-28T07:56:09.393Z,56.50
2019-02-28T07:58:39.013Z,57.60
2019-02-28T08:01:09.131Z,56.67
2019-02-28T08:03:39.216Z,56.40
2019-02-28T08:06:08.841Z,58.70
2019-02-28T08:08:38.662Z,54.10
2019-02-28T08:11:09.822Z,52.63
2019-02-28T08:13:41.036Z,53.37
2019-02-28T08:16:10.779Z,52.20
2019-02-28T08:18:40.396Z,50.47
2019-02-28T08:21:10.043Z,50.77
2019-02-28T08:23:39.682Z,47.07
2019-02-28T08:26:10.118Z,46.30
2019-02-28T08:28:40.181Z,46.20
2019-02-28T08:31:09.914Z,47.53
2019-02-28T08:33:39.545Z,49.13
2019-02-28T08:36:12.577Z,52.57
2019-02-28T08:38:40.660Z,51.33
2019-02-28T08:41:11.926Z,46.57
2019-02-28T08:43:44.508Z,41.27
2019-02-28T08:46:13.875Z,46.90
2019-02-28T08:48:43.605Z,43.40
2019-02-28T08:51:13.245Z,48.50
2019-02-28T08:53:42.908Z,44.67
2019-02-28T08:56:14.056Z,41.30
2019-02-28T08:58:43.852Z,43.83
2019-02-28T09:01:13.580Z,40.70
2019-02-28T09:03:43.203Z,39.87
2019-02-28T09:06:12.826Z,40.90
2019-02-28T09:08:44.508Z,38.13
2019-02-28T09:11:14.133Z,39.40
2019-02-28T09:13:44.025Z,40.33
2019-02-28T09:16:13.685Z,34.87
2019-02-28T09:18:44.885Z,33.57
2019-02-28T09:21:15.423Z,34.93
2019-02-28T09:23:45.950Z,34.00
2019-02-28T09:26:15.547Z,32.77
2019-02-28T09:28:48.308Z,35.70
2019-02-28T09:31:18.889Z,33.17
2019-02-28T09:33:49.288Z,29.77
2019-02-28T09:36:21.641Z,30.73
2019-02-28T09:38:57.074Z,27.90
2019-02-28T09:41:22.818Z,28.63
2019-02-28T09:43:52.446Z,27.53
2019-02-28T09:46:22.288Z,26.57
2019-02-28T09:48:53.122Z,24.43
2019-02-28T09:51:22.747Z,23.13
2019-02-28T09:53:52.779Z,23.40
2019-02-28T09:56:22.403Z,25.97
2019-02-28T09:58:52.164Z,21.07
2019-02-28T10:01:24.495Z,22.43
2019-02-28T10:03:55.481Z,18.83
2019-02-28T10:06:24.616Z,21.33
2019-02-28T10:08:54.774Z,24.40
2019-02-28T10:11:24.480Z,34.83
2019-02-28T10:13:54.257Z,52.03
2019-02-28T10:16:24.405Z,19.30
2019-02-28T10:18:54.037Z,21.27
2019-02-28T10:21:25.325Z,21.27
2019-02-28T10:23:56.977Z,21.00
2019-02-28T10:26:26.518Z,18.97
2019-02-28T10:28:56.148Z,18.07
2019-02-28T10:31:36.114Z,18.67
2019-02-28T10:33:57.297Z,15.20
2019-02-28T10:36:26.903Z,18.63
2019-02-28T10:38:57.770Z,15.67
2019-02-28T10:41:31.132Z,15.70
2019-02-28T10:43:59.240Z,14.97
2019-02-28T10:46:29.068Z,12.37
2019-02-28T10:48:58.680Z,11.90
2019-02-28T10:51:29.042Z,14.67
2019-02-28T10:53:58.783Z,7.83
2019-02-28T10:56:31.677Z,10.77
2019-02-28T10:59:00.293Z,11.03
2019-02-28T11:01:29.941Z,11.87
2019-02-28T11:04:00.287Z,12.30
2019-02-28T11:06:30.360Z,13.90
2019-02-28T11:09:00.115Z,13.03
2019-02-28T11:11:29.866Z,10.77
2019-02-28T11:13:59.885Z,13.30
2019-02-28T11:16:30.018Z,12.90
2019-02-28T11:18:59.640Z,13.93
2019-02-28T11:21:30.570Z,9.67
2019-02-28T11:24:00.308Z,8.93
2019-02-28T11:26:30.158Z,9.77
2019-02-28T11:29:02.864Z,10.23
2019-02-28T11:31:31.679Z,7.90
2019-02-28T11:34:01.528Z,9.13
2019-02-28T11:36:34.136Z,13.67
2019-02-28T11:39:05.311Z,10.83
2019-02-28T11:41:35.760Z,13.57
2019-02-28T11:44:05.386Z,11.27
2019-02-28T11:46:36.639Z,10.27
2019-02-28T11:49:07.368Z,9.80
2019-02-28T11:51:37.153Z,7.67
2019-02-28T11:54:06.847Z,10.00
2019-02-28T11:56:36.463Z,6.60
2019-02-28T11:59:06.278Z,10.60
2019-02-28T12:01:35.934Z,16.90
2019-02-28T12:04:05.554Z,7.43
2019-02-28T12:06:35.331Z,7.93
2019-02-28T12:09:07.491Z,7.47
2019-02-28T12:11:37.414Z,8.07
2019-02-28T12:14:07.023Z,5.20
2019-02-28T12:16:36.856Z,13.87
2019-02-28T12:19:06.490Z,4.80
2019-02-28T12:21:38.121Z,99.30
2019-02-28T12:24:07.500Z,24.27
2019-02-28T12:26:38.635Z,6.60
2019-02-28T12:29:09.389Z,6.00
2019-02-28T12:31:39.609Z,8.90
2019-02-28T12:34:09.231Z,9.47
2019-02-28T12:36:38.847Z,6.67
2019-02-28T12:39:08.528Z,6.67
2019-02-28T12:41:40.067Z,6.83
2019-02-28T12:44:12.370Z,7.67
2019-02-28T12:46:41.191Z,8.67
2019-02-28T12:49:10.982Z,5.37
2019-02-28T12:51:40.603Z,6.63
2019-02-28T12:54:10.393Z,5.10
2019-02-28T12:56:47.814Z,5.97
2019-02-28T12:59:20.139Z,5.37
2019-02-28T13:01:54.899Z,4.83
2019-02-28T13:04:25.598Z,7.10
2019-02-28T13:06:55.536Z,3.87
2019-02-28T13:09:26.569Z,5.27
2019-02-28T13:11:56.197Z,4.87
2019-02-28T13:14:25.967Z,55.00
2019-02-28T13:16:57.576Z,4.27
2019-02-28T13:19:27.181Z,4.40
2019-02-28T13:21:57.604Z,7.40
2019-02-28T13:24:28.389Z,4.17
2019-02-28T13:26:58.405Z,4.72
2019-02-28T13:29:32.421Z,3.98
2019-02-28T13:32:02.599Z,5.03
2019-02-28T13:34:32.501Z,3.50
2019-02-28T13:37:03.235Z,5.33
2019-02-28T13:39:32.964Z,4.72
2019-02-28T13:42:04.062Z,5.95
2019-02-28T13:44:36.402Z,4.80
2019-02-28T13:47:09.388Z,6.10
2019-02-28T13:49:38.462Z,5.50
2019-02-28T13:52:08.326Z,6.20
2019-02-28T13:54:41.871Z,4.95
2019-02-28T13:57:10.065Z,5.90
2019-02-28T13:59:40.810Z,6.37
2019-02-28T14:02:10.709Z,6.05
2019-02-28T14:04:40.338Z,4.22
2019-02-28T14:07:10.000Z,6.22
2019-02-28T14:09:39.662Z,4.62
2019-02-28T14:12:09.264Z,6.00
2019-02-28T14:14:42.103Z,4.55
2019-02-28T14:17:10.419Z,5.85
2019-02-28T14:19:41.325Z,39.45
2019-02-28T14:22:11.560Z,6.87
2019-02-28T14:24:42.373Z,7.03
2019-02-28T14:27:11.997Z,6.97
2019-02-28T14:29:42.626Z,5.00
2019-02-28T14:32:13.005Z,6.83
2019-02-28T14:34:42.803Z,5.03
2019-02-28T14:37:12.491Z,6.42
2019-02-28T14:39:42.740Z,7.78
2019-02-28T14:42:13.531Z,5.73
2019-02-28T14:44:43.190Z,8.77
2019-02-28T14:47:13.183Z,4.70
2019-02-28T14:49:43.867Z,5.07
2019-02-28T14:52:14.535Z,6.67
2019-02-28T14:54:44.428Z,7.17
2019-02-28T14:57:30.852Z,6.40
2019-02-28T15:00:06.179Z,7.73
2019-02-28T15:02:33.038Z,6.90
2019-02-28T15:05:02.983Z,7.13
2019-02-28T15:07:35.264Z,9.03
2019-02-28T15:10:08.834Z,9.53
2019-02-28T15:12:38.614Z,11.20
2019-02-28T15:15:11.655Z,10.87
2019-02-28T15:17:42.214Z,9.23
2019-02-28T15:20:13.831Z,10.17
2019-02-28T15:22:45.326Z,9.90
2019-02-28T15:25:18.578Z,7.40
2019-02-28T15:27:49.591Z,9.97
2019-02-28T15:30:30.478Z,10.27
2019-02-28T15:32:59.215Z,7.57
2019-02-28T15:35:29.632Z,8.17
2019-02-28T15:37:59.376Z,9.47
2019-02-28T15:40:33.774Z,10.13
2019-02-28T15:43:03.769Z,12.33
2019-02-28T15:45:36.243Z,14.80
2019-02-28T15:48:05.869Z,10.57
2019-02-28T15:50:35.497Z,9.43
2019-02-28T15:53:07.716Z,30.63
2019-02-28T15:55:37.385Z,42.53
2019-02-28T15:58:07.286Z,41.13
2019-02-28T16:00:37.713Z,30.17
2019-02-28T16:03:08.286Z,25.10
2019-02-28T16:05:42.744Z,29.17
2019-02-28T16:08:16.208Z,36.43
2019-02-28T16:10:53.347Z,40.93
2019-02-28T16:13:18.331Z,32.33
2019-02-28T16:15:50.196Z,33.90
2019-02-28T16:18:19.448Z,24.60
2019-02-28T16:20:49.247Z,39.90
2019-02-28T16:23:19.200Z,90.43
2019-02-28T16:25:50.221Z,36.73
2019-02-28T16:28:20.125Z,37.43
2019-02-28T16:30:50.229Z,34.70
2019-02-28T16:33:20.836Z,34.30
2019-02-28T16:35:51.424Z,36.20
2019-02-28T16:38:21.014Z,37.70
2019-02-28T16:40:51.555Z,42.63
2019-02-28T16:43:21.700Z,38.20
2019-02-28T16:45:51.647Z,41.00
2019-02-28T16:48:21.286Z,34.80
2019-02-28T16:50:53.693Z,36.63
2019-02-28T16:53:23.792Z,29.17
2019-02-28T16:55:54.647Z,24.60
2019-02-28T16:58:24.551Z,31.67
2019-02-28T17:00:54.178Z,32.33
2019-02-28T17:03:24.075Z,38.63
2019-02-28T17:05:53.718Z,38.47
2019-02-28T17:08:23.739Z,44.43
2019-02-28T17:10:53.683Z,39.17
2019-02-28T17:13:25.014Z,47.70
2019-02-28T17:16:08.062Z,133.80
2019-02-28T17:18:39.162Z,54.33
2019-02-28T17:21:08.920Z,30.10
2019-02-28T17:23:38.689Z,29.17
2019-02-28T17:26:08.322Z,21.70
2019-02-28T17:28:46.542Z,19.57
2019-02-28T17:31:21.646Z,25.13
2019-02-28T17:33:51.583Z,25.93
2019-02-28T17:36:21.221Z,25.47
2019-02-28T17:38:51.013Z,25.67
2019-02-28T17:41:21.648Z,19.80
2019-02-28T17:44:24.780Z,21.40
2019-02-28T17:47:00.540Z,23.73
2019-02-28T17:49:44.013Z,24.10
2019-02-28T17:52:16.825Z,21.87
2019-02-28T17:54:49.669Z,22.07
2019-02-28T17:57:33.760Z,25.17
2019-02-28T18:00:16.154Z,31.13
2019-02-28T18:03:06.401Z,26.83
2019-02-28T18:06:11.974Z,27.43
2019-02-28T18:08:51.004Z,32.87
2019-02-28T18:11:46.221Z,143.43
2019-02-28T18:14:21.801Z,27.40
2019-02-28T18:17:28.266Z,22.67
2019-02-28T18:20:17.610Z,21.30
2019-02-28T18:22:53.074Z,23.60
2019-02-28T18:25:48.701Z,23.33
2019-02-28T18:28:41.175Z,24.73
2019-02-28T18:31:12.702Z,19.37
2019-02-28T18:33:52.309Z,16.97
2019-02-28T18:36:25.200Z,18.97
2019-02-28T18:38:55.565Z,22.77
2019-02-28T18:41:25.180Z,18.50
2019-02-28T18:43:54.847Z,17.90
2019-02-28T18:46:24.549Z,32.37
2019-02-28T18:48:55.463Z,47.53
2019-02-28T18:51:25.353Z,52.97
2019-02-28T18:53:54.969Z,45.97
2019-02-28T18:56:24.840Z,48.40
2019-02-28T18:58:54.504Z,48.67
2019-02-28T19:01:24.253Z,50.40
2019-02-28T19:03:53.899Z,46.57
2019-02-28T19:06:23.618Z,44.33
2019-02-28T19:08:53.370Z,41.93
2019-02-28T19:11:23.206Z,36.53
2019-02-28T19:13:52.903Z,37.67
2019-02-28T19:16:22.535Z,43.27
2019-02-28T19:18:52.289Z,55.37
2019-02-28T19:21:21.973Z,70.50
2019-02-28T19:23:51.598Z,80.57
2019-02-28T19:26:22.627Z,73.17
2019-02-28T19:28:52.390Z,65.60
2019-02-28T19:31:22.025Z,58.20
2019-02-28T19:33:51.642Z,58.30
2019-02-28T19:36:40.411Z,48.73
2019-02-28T19:39:10.055Z,44.80
2019-02-28T19:41:41.861Z,38.43
2019-02-28T19:44:11.503Z,35.80
2019-02-28T19:46:43.878Z,33.03
2019-02-28T19:49:13.517Z,37.30
2019-02-28T19:51:43.407Z,39.23
2019-02-28T19:54:13.046Z,26.67
2019-02-28T19:56:42.678Z,25.30
2019-02-28T19:59:12.606Z,35.23
2019-02-28T20:01:42.312Z,39.33
2019-02-28T20:04:13.199Z,40.37
2019-02-28T20:06:43.395Z,54.97
2019-02-28T20:09:14.143Z,55.80
2019-02-28T20:11:44.354Z,45.20
2019-02-28T20:14:14.171Z,41.30
2019-02-28T20:16:43.857Z,43.67
2019-02-28T20:19:13.489Z,39.17
2019-02-28T20:21:43.180Z,29.90
2019-02-28T20:24:12.811Z,23.80
2019-02-28T20:26:42.437Z,17.90
2019-02-28T20:29:14.010Z,14.70
2019-02-28T20:31:43.815Z,11.53
2019-02-28T20:34:13.500Z,18.52
2019-02-28T20:36:43.873Z,16.50
2019-02-28T20:39:13.999Z,12.53
2019-02-28T20:41:43.748Z,12.73
2019-02-28T20:44:15.264Z,11.73
2019-02-28T20:46:44.884Z,11.27
2019-02-28T20:49:14.514Z,96.93
2019-02-28T20:51:44.487Z,20.63
2019-02-28T20:54:14.114Z,26.03
2019-02-28T20:56:46.529Z,30.20
2019-02-28T20:59:16.255Z,42.87
2019-02-28T21:05:47.270Z,69.13
2019-02-28T21:08:17.074Z,67.33
2019-02-28T21:14:35.022Z,55.73
2019-02-28T21:17:04.936Z,43.97
2019-02-28T21:19:35.625Z,51.50
2019-02-28T21:22:05.429Z,61.20
2019-02-28T21:24:35.091Z,72.73
2019-02-28T21:27:04.854Z,73.53
2019-02-28T21:29:34.736Z,47.03
2019-02-28T21:32:05.270Z,44.47
2019-02-28T21:34:37.583Z,45.90
2019-02-28T21:37:07.271Z,51.40
2019-02-28T21:39:36.940Z,56.93
2019-02-28T21:46:07.335Z,52.47
2019-02-28T21:48:36.961Z,43.60
2019-02-28T21:58:43.842Z,37.47
2019-02-28T22:01:13.587Z,37.83
2019-02-28T22:03:43.211Z,49.23
2019-02-28T22:06:12.878Z,51.20
2019-02-28T22:08:42.507Z,52.33
2019-02-28T22:11:13.697Z,50.63
2019-02-28T22:13:43.397Z,53.10
2019-02-28T22:16:13.379Z,46.17
2019-02-28T22:18:43.854Z,47.67
2019-02-28T22:21:13.715Z,55.63
2019-02-28T22:23:43.613Z,56.93
2019-02-28T22:26:13.344Z,48.87
2019-02-28T22:28:43.343Z,45.30
2019-02-28T22:31:34.995Z,74.53
2019-02-28T22:34:06.404Z,57.90
2019-02-28T22:36:37.667Z,50.70
2019-02-28T22:39:09.136Z,44.37
2019-02-28T22:41:38.868Z,45.47
2019-02-28T22:44:08.659Z,48.23
2019-02-28T22:46:38.400Z,50.93
2019-02-28T22:49:08.087Z,43.07
2019-02-28T22:51:37.837Z,48.38
2019-02-28T22:54:07.465Z,52.33
2019-02-28T22:56:37.123Z,45.13
2019-02-28T22:59:06.750Z,40.87
2019-02-28T23:01:37.085Z,39.80
2019-02-28T23:04:07.082Z,42.70
2019-02-28T23:06:36.712Z,33.37
2019-02-28T23:09:07.268Z,29.77
2019-02-28T23:11:37.851Z,30.87
2019-02-28T23:14:07.469Z,32.40
2019-02-28T23:16:37.098Z,32.13
2019-02-28T23:19:06.757Z,33.30
2019-02-28T23:21:37.155Z,37.20
2019-02-28T23:24:06.787Z,37.83
2019-02-28T23:26:56.048Z,49.40
2019-02-28T23:29:27.350Z,53.67
2019-02-28T23:32:06.058Z,48.30
2019-02-28T23:34:36.821Z,47.40
2019-02-28T23:37:06.444Z,43.50
2019-02-28T23:39:36.896Z,38.63
2019-02-28T23:42:07.027Z,34.23
2019-02-28T23:44:37.222Z,35.43
2019-02-28T23:47:06.913Z,33.57
2019-02-28T23:49:36.531Z,33.93
2019-02-28T23:52:06.157Z,31.43
2019-02-28T23:54:36.186Z,34.10
2019-02-28T23:57:06.182Z,37.03
2019-02-28T23:59:35.802Z,39.63
